Time;durP1;ratioP1;P1;durP2;ratioP2;P2;SDS_P1;SDS_P2;PMS_P1;PMS_P2;Temp;Humidity;BMP_temperature;BMP_pressure;BME280_temperature;BME280_humidity;BME280_pressure;Samples;Min_cycle;Max_cycle;Signal;HPM_P1;HPM_P2
2023/01/12 00:01:47;;;;;;;19.25;3.97;;;8.20;99.90;;;;;;5072416;28;20040;-71
2023/01/12 00:04:13;;;;;;;19.92;3.60;;;8.20;99.90;;;;;;5071488;28;20447;-71
2023/01/12 00:06:39;;;;;;;22.80;5.25;;;8.30;99.90;;;;;;5054379;28;20413;-71
2023/01/12 00:09:06;;;;;;;23.60;3.80;;;8.30;99.90;;;;;;5071971;28;20033;-72
2023/01/12 00:11:32;;;;;;;24.95;3.95;;;8.30;99.90;;;;;;5071498;28;20481;-73
2023/01/12 00:13:58;;;;;;;20.48;4.65;;;8.30;99.90;;;;;;5072051;28;20044;-72
2023/01/12 00:16:36;;;;;;;23.25;4.85;;;8.30;99.90;;;;;;5054179;28;20556;-72
2023/01/12 00:19:09;;;;;;;20.27;3.67;;;8.30;99.90;;;;;;5053135;28;20098;-72
2023/01/12 00:21:55;;;;;;;19.77;3.80;;;8.40;99.90;;;;;;5054068;28;20047;-71
2023/01/12 00:24:22;;;;;;;20.73;3.90;;;8.40;99.90;;;;;;5054204;28;20404;-71
2023/01/12 00:26:48;;;;;;;19.25;4.25;;;8.40;99.90;;;;;;5071284;28;20090;-71
2023/01/12 00:29:16;;;;;;;25.85;5.07;;;8.40;99.90;;;;;;5053796;28;20042;-71
2023/01/12 00:31:41;;;;;;;20.70;4.30;;;8.40;99.90;;;;;;5053677;28;20101;-71
2023/01/12 00:34:07;;;;;;;25.05;4.90;;;8.50;99.90;;;;;;5036573;28;20040;-71
2023/01/12 00:36:33;;;;;;;21.83;4.47;;;8.50;99.90;;;;;;5071865;28;20045;-71
2023/01/12 00:38:59;;;;;;;19.00;3.58;;;8.50;99.90;;;;;;5070197;28;20043;-71
2023/01/12 00:46:53;;;;;;;14.60;3.42;;;8.50;99.90;;;;;;5070772;28;20531;-72
2023/01/12 00:49:19;;;;;;;19.38;3.90;;;8.50;99.90;;;;;;5053531;28;20052;-72
2023/01/12 00:51:44;;;;;;;19.88;4.60;;;8.50;99.90;;;;;;5053339;28;20072;-71
2023/01/12 00:54:10;;;;;;;20.70;3.63;;;8.50;99.90;;;;;;5052773;28;20321;-72
2023/01/12 00:56:37;;;;;;;20.40;3.40;;;8.60;99.90;;;;;;5053515;28;20040;-72
2023/01/12 00:59:03;;;;;;;19.83;4.65;;;8.60;99.90;;;;;;5053277;28;20040;-71
2023/01/12 01:01:31;;;;;;;20.33;3.70;;;8.60;99.90;;;;;;5052627;28;20045;-72
2023/01/12 01:03:57;;;;;;;18.95;3.05;;;8.60;99.90;;;;;;5071772;28;20138;-71
2023/01/12 01:06:23;;;;;;;16.20;3.17;;;8.60;99.90;;;;;;5054623;28;20041;-71
2023/01/12 01:08:49;;;;;;;17.40;3.92;;;8.60;99.90;;;;;;5071814;28;20051;-70
2023/01/12 01:11:15;;;;;;;18.45;3.65;;;8.60;99.90;;;;;;5072127;28;20108;-71
2023/01/12 01:13:45;;;;;;;20.77;3.88;;;8.60;99.90;;;;;;5068194;28;20412;-72
2023/01/12 01:16:13;;;;;;;20.42;4.18;;;8.60;99.90;;;;;;5049675;28;20105;-72
2023/01/12 01:18:40;;;;;;;17.17;3.53;;;8.60;99.90;;;;;;5072148;28;20041;-71
2023/01/12 01:21:08;;;;;;;20.33;3.35;;;8.50;99.90;;;;;;5053540;28;20051;-73
2023/01/12 01:23:35;;;;;;;18.30;3.80;;;8.50;99.90;;;;;;5054036;28;20045;-71
2023/01/12 01:26:07;;;;;;;19.60;3.15;;;8.50;99.90;;;;;;5054160;28;20090;-71
2023/01/12 01:28:34;;;;;;;25.13;4.22;;;8.60;99.90;;;;;;5071164;28;20115;-71
2023/01/12 01:31:12;;;;;;;26.20;4.55;;;8.50;99.90;;;;;;5071999;28;20510;-71
2023/01/12 01:33:38;;;;;;;21.55;5.22;;;8.50;99.90;;;;;;5054046;28;20067;-71
2023/01/12 01:36:04;;;;;;;20.90;3.95;;;8.50;99.90;;;;;;5053091;28;20515;-71
2023/01/12 01:38:31;;;;;;;20.90;4.63;;;8.50;99.90;;;;;;5053664;28;20040;-71
2023/01/12 01:40:56;;;;;;;22.10;4.85;;;8.50;99.90;;;;;;5071540;28;20040;-72
2023/01/12 01:43:24;;;;;;;18.38;3.78;;;8.50;99.90;;;;;;5052830;28;20052;-72
2023/01/12 01:46:01;;;;;;;20.25;4.65;;;8.50;99.90;;;;;;5053258;28;20044;-73
2023/01/12 01:48:30;;;;;;;24.88;4.25;;;8.50;99.90;;;;;;5071556;28;20036;-72
2023/01/12 01:51:00;;;;;;;17.92;4.80;;;8.50;99.90;;;;;;5052949;28;20032;-72
2023/01/12 01:53:30;;;;;;;16.25;3.70;;;8.60;99.90;;;;;;5053527;28;20047;-73
2023/01/12 01:56:04;;;;;;;18.45;3.53;;;8.50;99.90;;;;;;5053255;28;20127;-72
2023/01/12 01:58:41;;;;;;;28.83;5.07;;;8.50;99.90;;;;;;5053400;28;20068;-73
2023/01/12 02:01:09;;;;;;;23.23;4.43;;;8.60;99.90;;;;;;5053461;28;20045;-72
2023/01/12 02:03:36;;;;;;;24.30;4.85;;;8.60;99.90;;;;;;5070986;28;20040;-72
2023/01/12 02:06:02;;;;;;;26.67;5.13;;;8.60;99.90;;;;;;5072110;28;20032;-72
2023/01/12 02:08:31;;;;;;;17.35;3.85;;;8.60;99.90;;;;;;5071166;28;20447;-72
2023/01/12 02:10:58;;;;;;;23.75;4.60;;;8.60;99.90;;;;;;5051479;28;20044;-72
2023/01/12 02:16:24;;;;;;;26.30;5.07;;;8.60;99.90;;;;;;5070825;28;20043;-72
2023/01/12 02:19:22;;;;;;;30.45;4.60;;;8.60;99.90;;;;;;5035122;28;20094;-72
2023/01/12 02:22:02;;;;;;;27.95;5.28;;;8.50;99.90;;;;;;5053078;28;20542;-71
2023/01/12 02:24:47;;;;;;;30.67;5.88;;;8.60;99.90;;;;;;5052632;28;20467;-71
2023/01/12 02:28:00;;;;;;;18.73;4.28;;;8.50;99.90;;;;;;5070922;28;20044;-71
2023/01/12 02:30:46;;;;;;;26.05;5.10;;;8.50;99.90;;;;;;4953489;28;20554;-71
2023/01/12 02:33:35;;;;;;;23.30;4.88;;;8.50;99.90;;;;;;4953095;28;20130;-70
2023/01/12 02:36:22;;;;;;;24.02;5.05;;;8.50;99.90;;;;;;4969679;28;20050;-71
2023/01/12 02:39:01;;;;;;;21.77;4.38;;;8.50;99.90;;;;;;4969099;28;20047;-71
2023/01/12 02:44:50;;;;;;;28.42;4.97;;;8.60;99.90;;;;;;4937070;28;20050;-71
2023/01/12 02:47:24;;;;;;;26.27;4.82;;;8.60;99.90;;;;;;4969568;28;20049;-71
2023/01/12 02:49:53;;;;;;;25.02;4.75;;;8.60;99.90;;;;;;4953478;28;20054;-71
2023/01/12 02:52:24;;;;;;;25.08;4.97;;;8.60;99.90;;;;;;4968931;28;20055;-70
2023/01/12 02:54:52;;;;;;;19.50;4.07;;;8.70;99.90;;;;;;4953332;28;20153;-71
2023/01/12 02:57:21;;;;;;;25.27;5.53;;;8.70;99.90;;;;;;4969384;28;20046;-70
2023/01/12 02:59:49;;;;;;;21.33;4.47;;;8.70;99.90;;;;;;4968686;28;20069;-70
2023/01/12 03:02:21;;;;;;;22.67;4.82;;;8.70;99.90;;;;;;4952747;28;20063;-70
2023/01/12 03:04:47;;;;;;;23.80;5.55;;;8.80;99.90;;;;;;4969390;28;20050;-72
2023/01/12 03:07:34;;;;;;;26.73;4.63;;;8.80;99.90;;;;;;5035301;28;20049;-70
2023/01/12 03:10:25;;;;;;;20.00;4.40;;;8.80;99.90;;;;;;5052670;28;20123;-70
2023/01/12 03:12:52;;;;;;;29.05;5.18;;;8.80;99.90;;;;;;5069765;28;20040;-70
2023/01/12 03:15:18;;;;;;;28.75;5.88;;;8.90;99.90;;;;;;5070306;28;20051;-71
2023/01/12 03:17:51;;;;;;;32.15;4.97;;;8.90;99.90;;;;;;5052374;28;20041;-71
2023/01/12 03:20:25;;;;;;;28.80;5.75;;;8.90;99.90;;;;;;5069605;28;20048;-70
2023/01/12 03:22:56;;;;;;;28.92;6.30;;;8.90;99.90;;;;;;5052263;28;20044;-71
2023/01/12 03:25:25;;;;;;;29.70;5.82;;;8.90;99.90;;;;;;5070252;28;20040;-71
2023/01/12 03:27:54;;;;;;;31.05;5.05;;;8.90;99.90;;;;;;5069472;28;20484;-71
2023/01/12 03:30:42;;;;;;;25.58;4.72;;;8.90;99.90;;;;;;5052423;28;20077;-71
2023/01/12 03:33:09;;;;;;;20.58;4.30;;;8.90;99.90;;;;;;5070172;28;20536;-71
2023/01/12 03:35:40;;;;;;;23.73;4.93;;;8.90;99.90;;;;;;5069465;28;20094;-72
2023/01/12 03:38:38;;;;;;;33.22;7.85;;;8.90;99.90;;;;;;5070329;28;20048;-72
2023/01/12 03:41:12;;;;;;;27.90;6.03;;;8.90;99.90;;;;;;5045823;28;20064;-72
2023/01/12 03:43:42;;;;;;;26.65;6.40;;;8.90;99.90;;;;;;5069977;28;20084;-71
2023/01/12 03:46:16;;;;;;;24.38;4.75;;;8.90;99.90;;;;;;5070014;28;20052;-71
2023/01/12 03:48:57;;;;;;;27.02;4.57;;;8.90;99.90;;;;;;5068775;28;20088;-71
2023/01/12 03:51:26;;;;;;;19.70;4.10;;;8.90;99.90;;;;;;5051093;28;20414;-70
2023/01/12 03:53:53;;;;;;;25.77;4.78;;;8.90;99.90;;;;;;5069301;28;20040;-71
2023/01/12 03:56:21;;;;;;;22.10;3.58;;;8.90;99.90;;;;;;5051362;28;20127;-71
2023/01/12 03:58:48;;;;;;;19.95;4.15;;;8.90;99.90;;;;;;5052173;28;20072;-71
2023/01/12 04:01:14;;;;;;;14.00;3.65;;;8.90;99.90;;;;;;5052335;28;20044;-71
2023/01/12 04:03:40;;;;;;;14.18;3.75;;;8.90;99.90;;;;;;5069413;28;20470;-71
2023/01/12 04:06:07;;;;;;;12.02;3.13;;;8.90;99.90;;;;;;5069950;28;20040;-71
2023/01/12 04:08:33;;;;;;;13.48;3.75;;;8.90;99.90;;;;;;5069984;28;20051;-71
2023/01/12 04:10:59;;;;;;;13.02;2.90;;;8.80;99.90;;;;;;5051247;28;20041;-71
2023/01/12 04:13:25;;;;;;;14.95;2.70;;;8.90;99.90;;;;;;5069915;28;20032;-71
2023/01/12 04:15:50;;;;;;;14.43;3.63;;;8.80;99.90;;;;;;5072409;28;20102;-71
2023/01/12 04:18:17;;;;;;;13.88;3.45;;;8.80;99.90;;;;;;5055377;28;20123;-70
2023/01/12 04:20:42;;;;;;;13.02;2.85;;;8.80;99.90;;;;;;5055287;28;20472;-71
2023/01/12 04:23:08;;;;;;;11.48;2.33;;;8.80;99.90;;;;;;5054722;28;20072;-71
2023/01/12 04:25:34;;;;;;;8.35;1.95;;;8.80;99.90;;;;;;5038565;28;20151;-71
2023/01/12 04:28:02;;;;;;;9.02;1.73;;;8.80;99.90;;;;;;5073424;28;20078;-70
2023/01/12 04:30:32;;;;;;;9.10;1.92;;;8.80;99.90;;;;;;5054655;28;20075;-69
2023/01/12 04:32:58;;;;;;;10.80;2.43;;;8.70;99.90;;;;;;5055133;28;20048;-68
2023/01/12 04:35:24;;;;;;;6.78;1.30;;;8.80;99.90;;;;;;5055212;28;20036;-68
2023/01/12 04:37:51;;;;;;;5.57;1.50;;;8.70;99.90;;;;;;5054451;28;20098;-69
2023/01/12 04:40:18;;;;;;;8.35;1.08;;;8.70;99.90;;;;;;5054917;28;20052;-66
2023/01/12 04:42:59;;;;;;;8.45;1.92;;;8.70;99.90;;;;;;5055197;28;20036;-69
2023/01/12 04:45:30;;;;;;;2.45;0.52;;;8.70;99.90;;;;;;5037624;28;20044;-69
2023/01/12 04:48:03;;;;;;;6.30;1.00;;;8.60;99.90;;;;;;5055053;28;20053;-68
2023/01/12 04:50:29;;;;;;;4.25;0.98;;;8.60;99.90;;;;;;5054766;28;20041;-68
2023/01/12 04:52:55;;;;;;;5.22;1.83;;;8.60;99.90;;;;;;5054482;28;20067;-69
2023/01/12 04:55:20;;;;;;;5.68;1.65;;;8.60;99.90;;;;;;5054646;28;20473;-69
2023/01/12 04:57:46;;;;;;;4.50;1.05;;;8.50;99.90;;;;;;5072626;28;20046;-70
2023/01/12 05:00:12;;;;;;;3.95;1.20;;;8.50;99.90;;;;;;5053983;28;20047;-68
2023/01/12 05:02:38;;;;;;;2.00;0.80;;;8.50;99.90;;;;;;5038234;28;20611;-67
2023/01/12 05:05:04;;;;;;;2.95;0.85;;;8.50;99.90;;;;;;5053888;28;20051;-69
2023/01/12 05:07:30;;;;;;;4.03;1.40;;;8.50;99.90;;;;;;5072468;28;20068;-69
2023/01/12 05:12:40;;;;;;;3.22;0.98;;;8.50;99.90;;;;;;5053808;28;20047;-69
2023/01/12 05:15:06;;;;;;;3.10;1.20;;;8.50;99.90;;;;;;5054291;28;20123;-67
2023/01/12 05:17:32;;;;;;;4.53;1.33;;;8.50;99.90;;;;;;5054364;28;20049;-66
2023/01/12 05:19:58;;;;;;;7.63;1.27;;;8.50;99.90;;;;;;5071379;28;20041;-69
2023/01/12 05:22:24;;;;;;;7.97;1.80;;;8.50;99.90;;;;;;5072270;28;20040;-68
2023/01/12 05:24:49;;;;;;;5.55;1.88;;;8.50;99.90;;;;;;5053680;28;20055;-67
2023/01/12 05:27:15;;;;;;;4.05;1.25;;;8.40;99.90;;;;;;5052723;28;20090;-67
2023/01/12 05:29:41;;;;;;;3.30;1.30;;;8.50;99.90;;;;;;5070849;28;20040;-67
2023/01/12 05:32:07;;;;;;;4.30;1.17;;;8.50;99.90;;;;;;5070829;28;20124;-69
2023/01/12 05:34:32;;;;;;;4.30;1.30;;;8.50;99.90;;;;;;5070071;28;20050;-67
2023/01/12 05:36:58;;;;;;;3.80;1.60;;;8.50;99.90;;;;;;5052752;28;20044;-68
2023/01/12 05:39:24;;;;;;;6.20;1.60;;;8.50;99.90;;;;;;5035926;28;20048;-68
2023/01/12 05:44:34;;;;;;;3.53;1.80;;;8.50;99.90;;;;;;5056357;28;20052;-69
2023/01/12 05:47:00;;;;;;;6.10;2.40;;;8.50;99.90;;;;;;5049947;28;20037;-69
2023/01/12 05:49:26;;;;;;;5.30;1.80;;;8.50;99.90;;;;;;5050580;28;20199;-68
2023/01/12 05:51:51;;;;;;;5.93;2.10;;;8.50;99.90;;;;;;5050267;28;20055;-69
2023/01/12 05:54:17;;;;;;;5.60;1.70;;;8.50;99.90;;;;;;5031935;28;20040;-69
2023/01/12 05:56:43;;;;;;;4.22;1.70;;;8.50;99.90;;;;;;5050281;28;20123;-69
2023/01/12 05:59:10;;;;;;;3.67;1.77;;;8.50;99.90;;;;;;5032378;28;20107;-68
2023/01/12 06:01:37;;;;;;;4.90;1.45;;;8.50;99.90;;;;;;5031789;28;20045;-70
2023/01/12 06:04:03;;;;;;;4.22;1.75;;;8.60;99.90;;;;;;5050319;28;20068;-69
2023/01/12 06:06:30;;;;;;;5.63;1.98;;;8.60;99.90;;;;;;5049961;28;20039;-69
2023/01/12 06:08:57;;;;;;;6.43;2.03;;;8.60;99.90;;;;;;5031567;28;20048;-69
2023/01/12 06:14:09;;;;;;;4.30;1.80;;;8.60;99.90;;;;;;5051557;28;20051;-68
2023/01/12 06:16:39;;;;;;;7.60;2.05;;;8.70;99.90;;;;;;5050722;28;20045;-69
2023/01/12 06:19:05;;;;;;;3.28;1.70;;;8.70;99.90;;;;;;5033375;28;20033;-68
2023/01/12 06:21:32;;;;;;;3.80;1.50;;;8.80;99.90;;;;;;5051020;28;20037;-68
2023/01/12 06:23:58;;;;;;;2.90;1.20;;;8.80;99.90;;;;;;5016232;28;20473;-68
2023/01/12 06:26:24;;;;;;;2.20;1.10;;;8.80;99.90;;;;;;5050929;28;20072;-68
2023/01/12 06:28:50;;;;;;;3.30;0.88;;;8.90;99.90;;;;;;5016151;28;20091;-69
2023/01/12 06:31:16;;;;;;;4.18;1.45;;;8.90;99.90;;;;;;5033257;28;20063;-68
2023/01/12 06:33:42;;;;;;;1.80;1.05;;;9.00;99.90;;;;;;5033130;28;20049;-70
2023/01/12 06:36:09;;;;;;;4.18;2.00;;;9.00;99.90;;;;;;5015857;28;20041;-69
2023/01/12 06:38:38;;;;;;;4.88;1.95;;;9.10;99.90;;;;;;5015776;28;20045;-68
2023/01/12 06:41:07;;;;;;;5.35;2.25;;;9.10;99.90;;;;;;5032791;28;20045;-69
2023/01/12 06:43:33;;;;;;;7.45;3.25;;;9.10;99.90;;;;;;5050221;28;20057;-71
2023/01/12 06:45:59;;;;;;;6.95;2.75;;;9.20;99.90;;;;;;5050741;28;20045;-71
2023/01/12 06:48:25;;;;;;;8.40;2.95;;;9.20;99.90;;;;;;5032787;28;20045;-68
2023/01/12 06:50:55;;;;;;;7.07;2.80;;;9.20;99.90;;;;;;5032192;28;20113;-68
2023/01/12 06:53:20;;;;;;;9.63;2.67;;;9.20;99.90;;;;;;5050657;28;20043;-67
2023/01/12 06:55:50;;;;;;;10.63;2.50;;;9.30;99.90;;;;;;5032679;28;20037;-68
2023/01/12 06:58:16;;;;;;;6.53;2.20;;;9.30;99.90;;;;;;5032374;28;20040;-68
2023/01/12 07:00:42;;;;;;;8.80;2.13;;;9.30;99.90;;;;;;5016144;28;20048;-69
2023/01/12 07:03:17;;;;;;;15.23;3.00;;;9.40;99.90;;;;;;5050493;28;20041;-67
2023/01/12 07:05:43;;;;;;;18.27;3.40;;;9.50;99.90;;;;;;5032162;28;20040;-67
2023/01/12 07:08:10;;;;;;;16.60;3.67;;;9.50;99.90;;;;;;5032583;28;20051;-69
2023/01/12 07:10:36;;;;;;;18.85;3.70;;;9.50;99.90;;;;;;5016282;28;20478;-69
2023/01/12 07:13:02;;;;;;;26.23;4.55;;;9.60;99.90;;;;;;5050028;28;20417;-68
2023/01/12 07:15:28;;;;;;;22.77;4.03;;;9.60;99.90;;;;;;5032472;28;20114;-69
2023/01/12 07:17:55;;;;;;;19.15;4.63;;;9.60;99.90;;;;;;5032118;28;20045;-69
2023/01/12 07:20:22;;;;;;;27.40;4.97;;;9.70;99.90;;;;;;5032358;28;20045;-69
2023/01/12 07:22:47;;;;;;;22.08;4.45;;;9.70;99.90;;;;;;5050535;28;20045;-70
2023/01/12 07:25:13;;;;;;;27.13;4.80;;;9.80;99.90;;;;;;5049805;28;20037;-70
2023/01/12 07:27:46;;;;;;;31.05;6.40;;;9.80;99.90;;;;;;5050469;28;20043;-70
2023/01/12 07:30:12;;;;;;;29.65;5.10;;;9.90;99.90;;;;;;5050322;28;20047;-68
2023/01/12 07:32:38;;;;;;;22.33;4.20;;;10.00;99.90;;;;;;5031976;28;20522;-67
2023/01/12 07:35:04;;;;;;;30.00;5.35;;;10.00;99.90;;;;;;5032179;28;20048;-67
2023/01/12 07:37:30;;;;;;;25.45;5.30;;;10.10;99.90;;;;;;5032300;28;20037;-69
2023/01/12 07:39:56;;;;;;;33.13;6.88;;;10.10;99.90;;;;;;5031528;28;20045;-71
2023/01/12 07:42:22;;;;;;;32.90;6.70;;;10.10;99.90;;;;;;5032377;28;20044;-69
2023/01/12 07:44:48;;;;;;;32.00;6.97;;;10.20;99.90;;;;;;5031200;28;20059;-70
2023/01/12 07:47:13;;;;;;;38.22;6.55;;;10.20;99.90;;;;;;5051648;28;20119;-68
2023/01/12 07:49:39;;;;;;;34.03;6.60;;;10.20;99.90;;;;;;5072825;28;20133;-70
2023/01/12 07:52:05;;;;;;;32.78;4.68;;;10.30;99.90;;;;;;5056091;28;20040;-69
2023/01/12 07:54:32;;;;;;;29.27;5.70;;;10.30;99.90;;;;;;5073384;28;20477;-69
2023/01/12 07:56:58;;;;;;;34.83;6.63;;;10.30;99.90;;;;;;5056055;28;20043;-71
2023/01/12 07:59:24;;;;;;;32.75;5.43;;;10.30;99.90;;;;;;5056064;28;20397;-71
2023/01/12 08:01:50;;;;;;;35.85;7.25;;;10.30;99.90;;;;;;5073050;28;20041;-71
2023/01/12 08:04:16;;;;;;;36.92;6.75;;;10.30;99.90;;;;;;5073554;28;20036;-71
2023/01/12 08:06:41;;;;;;;29.17;6.07;;;10.30;99.90;;;;;;5073834;28;20037;-71
2023/01/12 08:09:07;;;;;;;27.80;5.10;;;10.30;99.90;;;;;;5055139;28;20072;-69
2023/01/12 08:11:33;;;;;;;35.90;5.88;;;10.30;99.90;;;;;;5056246;28;20044;-74
2023/01/12 08:14:00;;;;;;;34.63;5.40;;;10.30;99.90;;;;;;5072978;28;20119;-72
2023/01/12 08:16:32;;;;;;;30.58;5.40;;;10.30;99.90;;;;;;5055637;28;20048;-73
2023/01/12 08:19:07;;;;;;;35.45;5.15;;;10.30;99.90;;;;;;5055442;28;20060;-74
2023/01/12 08:21:44;;;;;;;23.17;5.20;;;10.30;99.90;;;;;;5055003;28;20063;-72
2023/01/12 08:24:17;;;;;;;24.70;4.97;;;10.40;99.90;;;;;;5055951;28;20731;-72
2023/01/12 08:26:45;;;;;;;28.27;5.00;;;10.40;99.90;;;;;;5039222;28;20044;-70
2023/01/12 08:29:28;;;;;;;27.50;6.88;;;10.40;99.90;;;;;;5038412;28;20036;-71
2023/01/12 08:31:57;;;;;;;21.63;4.15;;;10.50;99.90;;;;;;5055423;28;20053;-73
2023/01/12 08:34:23;;;;;;;33.47;4.45;;;10.40;99.90;;;;;;5073821;28;20044;-72
2023/01/12 08:36:49;;;;;;;24.40;5.10;;;10.40;99.90;;;;;;5054950;28;20055;-73
2023/01/12 08:39:14;;;;;;;32.38;5.45;;;10.50;99.90;;;;;;5073035;28;20106;-69
2023/01/12 08:41:41;;;;;;;27.60;5.65;;;10.50;99.90;;;;;;5073153;28;20060;-72
2023/01/12 08:44:10;;;;;;;23.55;4.25;;;10.40;99.90;;;;;;5062830;28;20100;-73
2023/01/12 08:46:50;;;;;;;25.07;4.40;;;10.40;99.90;;;;;;5053277;28;20045;-71
2023/01/12 08:49:21;;;;;;;25.77;4.85;;;10.40;99.90;;;;;;5035019;28;20338;-73
2023/01/12 08:51:46;;;;;;;26.45;5.25;;;10.50;99.90;;;;;;5053165;28;20037;-72
2023/01/12 08:54:15;;;;;;;24.67;4.57;;;10.50;99.90;;;;;;5035129;28;20362;-71
2023/01/12 08:56:40;;;;;;;25.90;4.72;;;10.50;99.90;;;;;;5050531;28;20043;-75
2023/01/12 08:59:06;;;;;;;25.00;4.93;;;10.50;99.90;;;;;;5033223;28;20405;-76
2023/01/12 09:01:33;;;;;;;27.63;4.95;;;10.50;99.90;;;;;;5049601;28;20041;-78
2023/01/12 09:03:59;;;;;;;28.35;4.65;;;10.50;99.90;;;;;;5048990;28;20033;-77
2023/01/12 09:06:30;;;;;;;24.05;5.03;;;10.50;99.90;;;;;;5015207;28;20037;-77
2023/01/12 09:08:58;;;;;;;24.50;4.57;;;10.60;99.90;;;;;;5049257;28;20048;-75
2023/01/12 09:11:26;;;;;;;21.10;4.00;;;10.60;99.90;;;;;;5049059;28;20049;-75
2023/01/12 09:13:52;;;;;;;27.00;4.65;;;10.60;99.90;;;;;;5031777;28;20413;-74
2023/01/12 09:16:19;;;;;;;19.85;3.25;;;10.70;99.90;;;;;;5014885;28;20041;-72
2023/01/12 09:18:45;;;;;;;24.75;4.78;;;10.70;99.90;;;;;;5048346;28;20265;-71
2023/01/12 09:21:14;;;;;;;19.58;3.40;;;10.70;99.90;;;;;;5031244;28;20071;-71
2023/01/12 09:23:40;;;;;;;24.38;3.88;;;10.70;99.90;;;;;;5049291;28;20401;-72
2023/01/12 09:26:15;;;;;;;20.35;4.10;;;10.70;99.90;;;;;;5048595;28;20056;-72
2023/01/12 09:28:43;;;;;;;24.45;4.50;;;10.70;99.90;;;;;;5031084;28;20044;-70
2023/01/12 09:31:14;;;;;;;23.30;4.00;;;10.70;99.90;;;;;;5014350;28;20418;-73
2023/01/12 09:33:41;;;;;;;16.38;4.00;;;10.80;99.90;;;;;;5048959;28;20485;-73
2023/01/12 09:36:09;;;;;;;20.65;4.07;;;10.80;99.90;;;;;;5050250;28;20021;-77
2023/01/12 09:38:40;;;;;;;25.50;6.00;;;10.80;99.90;;;;;;5030884;28;20033;-76
2023/01/12 09:47:24;;;;;;;17.70;3.80;;;10.90;99.90;;;;;;5068212;28;20522;-77
2023/01/12 09:50:00;;;;;;;19.10;3.53;;;10.90;99.90;;;;;;5070668;28;20052;-77
2023/01/12 09:52:51;;;;;;;22.63;4.03;;;10.90;99.90;;;;;;5077913;28;20037;-73
2023/01/12 09:55:23;;;;;;;19.63;4.65;;;11.00;99.90;;;;;;5056849;28;20059;-77
2023/01/12 09:58:08;;;;;;;18.95;3.85;;;11.00;99.90;;;;;;5077807;28;20489;-76
2023/01/12 10:00:33;;;;;;;12.88;3.60;;;11.00;99.90;;;;;;5071137;28;20036;-68
2023/01/12 10:03:13;;;;;;;33.53;6.57;;;11.10;99.90;;;;;;5079469;28;20102;-72
2023/01/12 10:06:01;;;;;;;18.83;3.40;;;11.10;99.90;;;;;;5062023;28;20114;-74
2023/01/12 10:08:49;;;;;;;19.83;4.30;;;11.20;99.90;;;;;;5079944;28;20043;-75
2023/01/12 10:11:59;;;;;;;14.23;3.45;;;11.40;99.90;;;;;;5080019;28;20032;-72
2023/01/12 10:14:26;;;;;;;20.17;3.83;;;11.50;99.90;;;;;;5049361;28;20127;-71
2023/01/12 10:17:17;;;;;;;15.13;3.97;;;11.60;99.90;;;;;;5041542;28;20289;-72
2023/01/12 10:20:12;;;;;;;20.45;4.35;;;11.90;99.90;;;;;;5053031;28;20047;-73
2023/01/12 10:22:54;;;;;;;16.95;3.25;;;12.10;99.90;;;;;;5054568;28;20040;-73
2023/01/12 10:25:22;;;;;;;12.82;3.55;;;12.40;99.90;;;;;;5036854;28;20043;-74
2023/01/12 10:27:51;;;;;;;14.77;3.15;;;12.40;99.90;;;;;;5052439;28;20085;-71
2023/01/12 10:30:19;;;;;;;17.20;3.65;;;12.40;99.90;;;;;;5072813;28;20044;-72
2023/01/12 10:32:45;;;;;;;20.48;3.75;;;12.60;99.90;;;;;;5071287;28;20083;-73
2023/01/12 10:35:16;;;;;;;18.38;5.85;;;12.60;99.90;;;;;;5053093;28;20075;-73
2023/01/12 10:38:12;;;;;;;19.88;5.65;;;12.70;99.90;;;;;;5053100;28;20419;-74
2023/01/12 10:40:38;;;;;;;13.65;3.92;;;12.70;99.90;;;;;;5053179;28;20051;-71
2023/01/12 10:43:22;;;;;;;21.73;5.25;;;12.60;99.90;;;;;;5071011;28;20404;-73
2023/01/12 10:46:07;;;;;;;15.90;3.75;;;12.40;99.90;;;;;;5053614;28;20052;-74
2023/01/12 10:48:32;;;;;;;20.02;4.53;;;12.20;99.90;;;;;;5052496;28;20036;-74
2023/01/12 10:51:04;;;;;;;17.88;5.10;;;12.00;99.90;;;;;;5053261;28;20055;-74
2023/01/12 10:53:39;;;;;;;20.10;5.30;;;11.90;99.90;;;;;;5053237;28;20124;-73
2023/01/12 10:56:36;;;;;;;20.88;4.38;;;11.80;99.90;;;;;;5052192;28;20048;-73
2023/01/12 10:59:04;;;;;;;23.67;4.63;;;11.70;99.90;;;;;;5069176;28;20872;-73
2023/01/12 11:01:50;;;;;;;21.17;4.55;;;11.60;99.90;;;;;;5051162;28;20134;-74
2023/01/12 11:04:22;;;;;;;26.02;4.78;;;11.60;99.90;;;;;;5050774;28;20044;-72
2023/01/12 11:07:07;;;;;;;15.73;3.10;;;11.50;99.90;;;;;;5051007;28;20353;-74
2023/01/12 11:09:33;;;;;;;19.98;3.67;;;11.50;99.90;;;;;;5050079;28;20091;-74
2023/01/12 11:12:01;;;;;;;27.70;5.32;;;11.50;99.90;;;;;;5052244;28;20078;-73
2023/01/12 11:14:31;;;;;;;19.40;4.85;;;11.40;99.90;;;;;;5052474;28;20075;-74
2023/01/12 11:17:17;;;;;;;25.73;5.10;;;11.50;99.90;;;;;;5052140;28;20052;-73
2023/01/12 11:19:44;;;;;;;16.75;3.17;;;11.50;99.90;;;;;;5052532;28;20039;-73
2023/01/12 11:22:37;;;;;;;20.63;4.20;;;11.50;99.90;;;;;;5052446;28;20040;-73
2023/01/12 11:25:12;;;;;;;18.40;3.65;;;11.60;99.90;;;;;;5051686;28;20070;-73
2023/01/12 11:27:48;;;;;;;17.58;4.38;;;11.60;99.90;;;;;;5074393;28;20508;-73
2023/01/12 11:30:44;;;;;;;14.93;4.38;;;11.60;99.90;;;;;;5074439;28;20045;-73
2023/01/12 11:33:19;;;;;;;18.42;3.35;;;11.70;99.90;;;;;;5022730;28;20048;-74
2023/01/12 11:35:58;;;;;;;14.02;3.10;;;11.70;99.90;;;;;;5074230;28;20127;-73
2023/01/12 11:38:34;;;;;;;15.27;3.55;;;11.70;99.90;;;;;;5055777;28;20045;-73
2023/01/12 11:41:02;;;;;;;15.63;3.30;;;11.70;99.90;;;;;;5074051;28;20040;-74
2023/01/12 11:43:49;;;;;;;20.33;3.92;;;11.70;99.90;;;;;;5039328;28;20044;-73
2023/01/12 11:46:22;;;;;;;15.50;2.88;;;11.70;99.90;;;;;;5056151;28;20041;-73
2023/01/12 11:49:03;;;;;;;18.33;3.55;;;11.70;99.90;;;;;;5056296;28;20408;-74
2023/01/12 11:51:29;;;;;;;21.85;4.03;;;11.60;99.90;;;;;;5055340;28;20182;-73
2023/01/12 11:53:57;;;;;;;21.45;4.03;;;11.70;99.90;;;;;;5056127;28;20119;-74
2023/01/12 11:56:46;;;;;;;12.77;2.53;;;11.70;99.90;;;;;;5073932;28;20033;-73
2023/01/12 11:59:28;;;;;;;17.67;4.05;;;11.70;99.90;;;;;;5073220;28;20044;-70
2023/01/12 12:02:16;;;;;;;16.42;3.60;;;11.70;99.90;;;;;;5074026;28;20443;-74
2023/01/12 12:05:06;;;;;;;14.98;3.58;;;11.70;99.90;;;;;;5074258;28;20036;-74
2023/01/12 12:07:56;;;;;;;20.70;3.90;;;11.70;99.90;;;;;;5073841;28;20124;-72
2023/01/12 12:11:10;;;;;;;18.30;4.38;;;11.60;99.90;;;;;;5055732;28;20279;-74
2023/01/12 12:14:08;;;;;;;18.65;3.97;;;11.70;99.90;;;;;;5055018;28;20503;-74
2023/01/12 12:16:57;;;;;;;22.25;4.25;;;11.70;99.90;;;;;;5068434;28;20053;-73
2023/01/12 12:19:29;;;;;;;20.50;5.55;;;11.60;99.90;;;;;;5054920;28;20457;-74
2023/01/12 12:22:19;;;;;;;26.08;6.03;;;11.60;99.90;;;;;;5069567;28;20493;-73
2023/01/12 12:25:01;;;;;;;;;;;11.60;99.90;;;;;;5074254;28;20124;-74
2023/01/12 12:27:30;;;;;;;22.67;4.47;;;11.50;99.90;;;;;;5073372;28;19916;-74
2023/01/12 12:30:08;;;;;;;26.88;5.80;;;11.50;99.90;;;;;;5072423;28;20047;-71
2023/01/12 12:32:59;;;;;;;24.58;6.03;;;11.40;99.90;;;;;;5069678;28;20082;-71
2023/01/12 12:35:31;;;;;;;26.48;5.22;;;11.40;99.90;;;;;;5050700;28;20052;-73
2023/01/12 12:38:34;;;;;;;28.48;5.25;;;11.40;99.90;;;;;;5047684;28;20048;-74
2023/01/12 12:47:27;;;;;;;25.80;5.47;;;11.50;99.90;;;;;;5040996;28;20040;-73
2023/01/12 12:49:55;;;;;;;22.20;4.22;;;11.50;99.90;;;;;;5071837;28;20044;-74
2023/01/12 12:52:23;;;;;;;21.85;4.78;;;11.60;99.90;;;;;;5073437;28;20040;-73
2023/01/12 12:54:50;;;;;;;24.98;4.75;;;11.60;99.90;;;;;;5057511;28;20123;-73
2023/01/12 12:57:17;;;;;;;19.67;4.22;;;11.70;99.90;;;;;;5063178;28;20465;-73
2023/01/12 12:59:58;;;;;;;19.63;4.28;;;11.70;99.90;;;;;;5071173;28;20113;-73
2023/01/12 13:02:30;;;;;;;18.02;4.40;;;11.70;99.90;;;;;;5042783;28;20114;-73
2023/01/12 13:04:57;;;;;;;24.08;4.97;;;11.70;99.90;;;;;;5032734;28;20076;-73
2023/01/12 13:07:25;;;;;;;24.25;4.30;;;11.70;99.90;;;;;;5055298;28;20059;-71
2023/01/12 13:10:01;;;;;;;25.83;5.25;;;11.60;99.90;;;;;;5035903;28;20430;-74
2023/01/12 13:12:35;;;;;;;25.23;4.20;;;11.60;99.90;;;;;;5064169;28;20463;-74
2023/01/12 13:15:17;;;;;;;21.08;4.72;;;11.60;99.90;;;;;;5072860;28;20541;-72
2023/01/12 13:17:44;;;;;;;23.08;4.32;;;11.60;99.90;;;;;;5054643;28;20453;-73
2023/01/12 13:20:10;;;;;;;24.05;3.95;;;11.60;99.90;;;;;;5072157;28;20055;-70
2023/01/12 13:22:38;;;;;;;28.73;4.57;;;11.60;99.90;;;;;;5053773;28;20127;-72
2023/01/12 13:25:19;;;;;;;18.95;4.18;;;11.60;99.90;;;;;;5036552;28;20041;-70
2023/01/12 13:27:47;;;;;;;31.05;5.35;;;11.60;99.90;;;;;;5054354;28;20369;-75
2023/01/12 13:30:19;;;;;;;36.85;6.25;;;11.50;99.90;;;;;;5053562;28;20044;-72
2023/01/12 13:33:09;;;;;;;18.38;4.10;;;11.50;99.90;;;;;;5054303;28;20044;-72
2023/01/12 13:35:37;;;;;;;21.27;4.03;;;11.50;99.90;;;;;;5037472;28;20055;-73
2023/01/12 13:38:10;;;;;;;21.80;4.80;;;11.50;99.90;;;;;;5053687;28;20048;-71
2023/01/12 13:40:37;;;;;;;26.10;5.38;;;11.50;99.90;;;;;;5071985;28;20048;-72